Terminal Aerodrome Forecast
Issued by NWS

Home | Current Version | Previous Version | Text Only | Print | Product List | Glossary On
Versions: 1 2 3 4 5 6 7 8 9 10 11 12 13 14 15 16 17 18 19 20 21
000
FTUS46 KSEW 061134
TAFBLI
TAF
KBLI 061134Z 0612/0712 17005KT 6SM FU SCT030
      TEMPO 0612/0616 4SM FU BKN030
     FM061600 17009KT P6SM SCT060
     FM061900 19009KT P6SM SCT100
     FM070200 17006KT P6SM SCT130=

USA.gov is the U.S. government's official web portal to all federal, state and local government web resources and services.